Terminal Aerodrome Forecast
Issued by NWS

Home | Current Version | Previous Version | Text Only | Print | Product List | Glossary On
Versions: 1 2 3 4 5 6 7 8 9 10 11 12
000
FTUS46 KMTR 121746
TAFOAK
TAF
KOAK 121746Z 1218/1324 32005KT P6SM FEW010 SCT250
     FM122000 28008KT P6SM SCT250
     FM131400 31005KT 6SM HZ FEW007 SCT250
     FM132100 29008KT P6SM FEW011 SCT250=

USA.gov is the U.S. government's official web portal to all federal, state and local government web resources and services.